sensor_id;sensor_type;location;lat;lon;timestamp;P1;durP1;ratioP1;P2;durP2;ratioP2
42726;SDS011;28372;56.832;60.658;2023-11-21T00:00:01;5.07;;;2.10;;
42726;SDS011;28372;56.832;60.658;2023-11-21T00:02:38;4.30;;;2.22;;
42726;SDS011;28372;56.832;60.658;2023-11-21T00:05:08;3.65;;;2.15;;
42726;SDS011;28372;56.832;60.658;2023-11-21T00:07:37;5.45;;;2.40;;
42726;SDS011;28372;56.832;60.658;2023-11-21T00:10:06;4.35;;;2.28;;
42726;SDS011;28372;56.832;60.658;2023-11-21T00:12:35;4.40;;;2.05;;
42726;SDS011;28372;56.832;60.658;2023-11-21T00:15:04;6.90;;;2.20;;
42726;SDS011;28372;56.832;60.658;2023-11-21T00:17:32;3.05;;;1.50;;
42726;SDS011;28372;56.832;60.658;2023-11-21T00:20:00;4.50;;;2.00;;
42726;SDS011;28372;56.832;60.658;2023-11-21T00:22:29;6.50;;;2.38;;
42726;SDS011;28372;56.832;60.658;2023-11-21T00:24:57;6.30;;;2.58;;
42726;SDS011;28372;56.832;60.658;2023-11-21T00:27:24;5.88;;;2.63;;
42726;SDS011;28372;56.832;60.658;2023-11-21T00:29:52;5.65;;;2.60;;
42726;SDS011;28372;56.832;60.658;2023-11-21T00:32:20;6.70;;;2.80;;
42726;SDS011;28372;56.832;60.658;2023-11-21T00:34:48;8.32;;;3.58;;
42726;SDS011;28372;56.832;60.658;2023-11-21T00:37:16;6.88;;;3.20;;
42726;SDS011;28372;56.832;60.658;2023-11-21T00:39:44;4.13;;;2.40;;
42726;SDS011;28372;56.832;60.658;2023-11-21T00:42:11;5.80;;;3.28;;
42726;SDS011;28372;56.832;60.658;2023-11-21T00:44:39;3.75;;;1.75;;
42726;SDS011;28372;56.832;60.658;2023-11-21T00:47:08;5.72;;;2.17;;
42726;SDS011;28372;56.832;60.658;2023-11-21T00:49:36;5.95;;;2.45;;
42726;SDS011;28372;56.832;60.658;2023-11-21T00:52:03;2.83;;;1.73;;
42726;SDS011;28372;56.832;60.658;2023-11-21T00:54:31;4.97;;;2.67;;
42726;SDS011;28372;56.832;60.658;2023-11-21T00:57:01;5.05;;;2.33;;
42726;SDS011;28372;56.832;60.658;2023-11-21T00:59:30;4.45;;;1.90;;
42726;SDS011;28372;56.832;60.658;2023-11-21T01:01:58;5.30;;;2.42;;
42726;SDS011;28372;56.832;60.658;2023-11-21T01:04:27;6.35;;;2.72;;
42726;SDS011;28372;56.832;60.658;2023-11-21T01:06:55;5.28;;;2.38;;
42726;SDS011;28372;56.832;60.658;2023-11-21T01:09:22;6.93;;;2.40;;
42726;SDS011;28372;56.832;60.658;2023-11-21T01:11:51;5.20;;;2.63;;
42726;SDS011;28372;56.832;60.658;2023-11-21T01:14:19;5.03;;;2.50;;
42726;SDS011;28372;56.832;60.658;2023-11-21T01:16:47;5.30;;;2.60;;
42726;SDS011;28372;56.832;60.658;2023-11-21T01:19:16;4.22;;;1.88;;
42726;SDS011;28372;56.832;60.658;2023-11-21T01:21:44;7.82;;;2.60;;
42726;SDS011;28372;56.832;60.658;2023-11-21T01:24:11;5.22;;;1.88;;
42726;SDS011;28372;56.832;60.658;2023-11-21T01:26:39;4.75;;;2.00;;
42726;SDS011;28372;56.832;60.658;2023-11-21T01:29:06;7.53;;;2.33;;
42726;SDS011;28372;56.832;60.658;2023-11-21T01:31:34;4.68;;;1.80;;
42726;SDS011;28372;56.832;60.658;2023-11-21T01:34:02;5.75;;;2.47;;
42726;SDS011;28372;56.832;60.658;2023-11-21T01:36:30;6.43;;;2.30;;
42726;SDS011;28372;56.832;60.658;2023-11-21T01:39:02;6.45;;;2.60;;
42726;SDS011;28372;56.832;60.658;2023-11-21T01:41:34;6.15;;;2.65;;
42726;SDS011;28372;56.832;60.658;2023-11-21T01:44:02;4.93;;;2.20;;
42726;SDS011;28372;56.832;60.658;2023-11-21T01:46:30;11.95;;;2.67;;
42726;SDS011;28372;56.832;60.658;2023-11-21T01:48:58;4.80;;;2.67;;
42726;SDS011;28372;56.832;60.658;2023-11-21T01:51:26;6.68;;;2.70;;
42726;SDS011;28372;56.832;60.658;2023-11-21T01:53:54;4.90;;;2.17;;
42726;SDS011;28372;56.832;60.658;2023-11-21T01:56:23;4.07;;;2.17;;
42726;SDS011;28372;56.832;60.658;2023-11-21T01:58:51;4.50;;;2.38;;
42726;SDS011;28372;56.832;60.658;2023-11-21T02:01:18;6.43;;;2.97;;
42726;SDS011;28372;56.832;60.658;2023-11-21T02:03:46;5.40;;;2.33;;
42726;SDS011;28372;56.832;60.658;2023-11-21T02:06:14;5.95;;;2.55;;
42726;SDS011;28372;56.832;60.658;2023-11-21T02:08:47;4.65;;;2.08;;
42726;SDS011;28372;56.832;60.658;2023-11-21T02:11:16;5.80;;;2.40;;
42726;SDS011;28372;56.832;60.658;2023-11-21T02:13:46;6.50;;;2.35;;
42726;SDS011;28372;56.832;60.658;2023-11-21T02:16:30;5.07;;;2.22;;
42726;SDS011;28372;56.832;60.658;2023-11-21T02:19:01;5.88;;;2.60;;
42726;SDS011;28372;56.832;60.658;2023-11-21T02:21:30;4.10;;;1.80;;
42726;SDS011;28372;56.832;60.658;2023-11-21T02:23:58;8.43;;;2.15;;
42726;SDS011;28372;56.832;60.658;2023-11-21T02:26:27;8.07;;;2.63;;
42726;SDS011;28372;56.832;60.658;2023-11-21T02:28:55;6.15;;;2.45;;
42726;SDS011;28372;56.832;60.658;2023-11-21T02:31:25;3.95;;;2.22;;
42726;SDS011;28372;56.832;60.658;2023-11-21T02:33:56;4.85;;;2.10;;
42726;SDS011;28372;56.832;60.658;2023-11-21T02:36:24;6.93;;;3.30;;
42726;SDS011;28372;56.832;60.658;2023-11-21T02:38:52;8.57;;;3.90;;
42726;SDS011;28372;56.832;60.658;2023-11-21T02:41:21;9.82;;;2.97;;
42726;SDS011;28372;56.832;60.658;2023-11-21T02:43:49;6.68;;;3.00;;
42726;SDS011;28372;56.832;60.658;2023-11-21T02:46:16;10.35;;;3.78;;
42726;SDS011;28372;56.832;60.658;2023-11-21T02:48:44;3.20;;;1.75;;
42726;SDS011;28372;56.832;60.658;2023-11-21T02:51:12;6.00;;;2.78;;
42726;SDS011;28372;56.832;60.658;2023-11-21T02:53:40;7.57;;;3.35;;
42726;SDS011;28372;56.832;60.658;2023-11-21T02:56:08;7.00;;;2.90;;
42726;SDS011;28372;56.832;60.658;2023-11-21T02:58:35;8.10;;;3.50;;
42726;SDS011;28372;56.832;60.658;2023-11-21T03:01:03;6.50;;;2.65;;
42726;SDS011;28372;56.832;60.658;2023-11-21T03:03:32;6.88;;;2.55;;
42726;SDS011;28372;56.832;60.658;2023-11-21T03:06:00;5.45;;;2.20;;
42726;SDS011;28372;56.832;60.658;2023-11-21T03:08:28;7.93;;;2.42;;
42726;SDS011;28372;56.832;60.658;2023-11-21T03:10:55;9.50;;;3.10;;
42726;SDS011;28372;56.832;60.658;2023-11-21T03:13:23;5.47;;;2.45;;
42726;SDS011;28372;56.832;60.658;2023-11-21T03:15:51;7.22;;;3.10;;
42726;SDS011;28372;56.832;60.658;2023-11-21T03:18:19;13.02;;;3.15;;
42726;SDS011;28372;56.832;60.658;2023-11-21T03:20:49;7.15;;;2.28;;
42726;SDS011;28372;56.832;60.658;2023-11-21T03:23:16;7.07;;;3.13;;
42726;SDS011;28372;56.832;60.658;2023-11-21T03:25:44;8.60;;;2.75;;
42726;SDS011;28372;56.832;60.658;2023-11-21T03:28:12;11.38;;;3.20;;
42726;SDS011;28372;56.832;60.658;2023-11-21T03:30:40;6.70;;;3.10;;
42726;SDS011;28372;56.832;60.658;2023-11-21T03:33:07;7.30;;;3.22;;
42726;SDS011;28372;56.832;60.658;2023-11-21T03:35:35;6.25;;;2.55;;
42726;SDS011;28372;56.832;60.658;2023-11-21T03:38:03;7.13;;;3.00;;
42726;SDS011;28372;56.832;60.658;2023-11-21T03:40:31;7.10;;;3.40;;
42726;SDS011;28372;56.832;60.658;2023-11-21T03:43:00;6.55;;;3.30;;
42726;SDS011;28372;56.832;60.658;2023-11-21T03:45:28;7.53;;;3.22;;
42726;SDS011;28372;56.832;60.658;2023-11-21T03:47:56;7.22;;;2.92;;
42726;SDS011;28372;56.832;60.658;2023-11-21T03:50:24;6.93;;;2.95;;
42726;SDS011;28372;56.832;60.658;2023-11-21T03:52:51;6.25;;;2.78;;
42726;SDS011;28372;56.832;60.658;2023-11-21T03:55:20;8.70;;;3.30;;
42726;SDS011;28372;56.832;60.658;2023-11-21T03:57:48;7.47;;;3.47;;
42726;SDS011;28372;56.832;60.658;2023-11-21T04:00:15;6.47;;;3.17;;
42726;SDS011;28372;56.832;60.658;2023-11-21T04:02:45;6.53;;;2.88;;
42726;SDS011;28372;56.832;60.658;2023-11-21T04:05:13;6.35;;;3.15;;
42726;SDS011;28372;56.832;60.658;2023-11-21T04:07:41;8.20;;;3.35;;
42726;SDS011;28372;56.832;60.658;2023-11-21T04:10:08;7.60;;;2.55;;
42726;SDS011;28372;56.832;60.658;2023-11-21T04:12:40;9.48;;;3.28;;
42726;SDS011;28372;56.832;60.658;2023-11-21T04:15:08;7.13;;;3.05;;
42726;SDS011;28372;56.832;60.658;2023-11-21T04:17:37;7.13;;;3.05;;
42726;SDS011;28372;56.832;60.658;2023-11-21T04:20:06;10.25;;;3.03;;
42726;SDS011;28372;56.832;60.658;2023-11-21T04:22:38;8.13;;;3.00;;
42726;SDS011;28372;56.832;60.658;2023-11-21T04:25:13;6.75;;;2.63;;
42726;SDS011;28372;56.832;60.658;2023-11-21T04:27:44;9.17;;;3.40;;
42726;SDS011;28372;56.832;60.658;2023-11-21T04:30:13;9.15;;;3.40;;
42726;SDS011;28372;56.832;60.658;2023-11-21T04:32:41;14.50;;;5.03;;
42726;SDS011;28372;56.832;60.658;2023-11-21T04:35:09;7.55;;;3.20;;
42726;SDS011;28372;56.832;60.658;2023-11-21T04:37:37;15.95;;;2.97;;
42726;SDS011;28372;56.832;60.658;2023-11-21T04:40:05;5.60;;;2.80;;
42726;SDS011;28372;56.832;60.658;2023-11-21T04:42:34;6.05;;;2.85;;
42726;SDS011;28372;56.832;60.658;2023-11-21T04:45:05;7.45;;;3.22;;
42726;SDS011;28372;56.832;60.658;2023-11-21T04:47:37;7.90;;;3.00;;
42726;SDS011;28372;56.832;60.658;2023-11-21T04:50:05;7.47;;;3.03;;
42726;SDS011;28372;56.832;60.658;2023-11-21T04:52:33;11.57;;;3.60;;
42726;SDS011;28372;56.832;60.658;2023-11-21T04:55:01;8.63;;;3.20;;
42726;SDS011;28372;56.832;60.658;2023-11-21T04:57:31;8.75;;;3.67;;
42726;SDS011;28372;56.832;60.658;2023-11-21T04:59:59;8.23;;;2.78;;
42726;SDS011;28372;56.832;60.658;2023-11-21T05:02:27;7.15;;;3.38;;
42726;SDS011;28372;56.832;60.658;2023-11-21T05:05:02;6.78;;;3.08;;
42726;SDS011;28372;56.832;60.658;2023-11-21T05:07:37;7.13;;;3.08;;
42726;SDS011;28372;56.832;60.658;2023-11-21T05:10:08;6.85;;;2.92;;
42726;SDS011;28372;56.832;60.658;2023-11-21T05:12:40;8.23;;;3.42;;
42726;SDS011;28372;56.832;60.658;2023-11-21T05:15:09;12.40;;;3.60;;
42726;SDS011;28372;56.832;60.658;2023-11-21T05:17:40;9.73;;;4.50;;
42726;SDS011;28372;56.832;60.658;2023-11-21T05:20:11;6.40;;;3.17;;
42726;SDS011;28372;56.832;60.658;2023-11-21T05:22:41;10.27;;;3.40;;
42726;SDS011;28372;56.832;60.658;2023-11-21T05:25:09;8.48;;;3.70;;
42726;SDS011;28372;56.832;60.658;2023-11-21T05:27:38;8.88;;;3.47;;
42726;SDS011;28372;56.832;60.658;2023-11-21T05:30:06;5.28;;;2.60;;
42726;SDS011;28372;56.832;60.658;2023-11-21T05:32:39;7.95;;;3.60;;
42726;SDS011;28372;56.832;60.658;2023-11-21T05:35:10;7.72;;;3.00;;
42726;SDS011;28372;56.832;60.658;2023-11-21T05:37:47;8.65;;;2.83;;
42726;SDS011;28372;56.832;60.658;2023-11-21T05:40:15;6.40;;;2.85;;
42726;SDS011;28372;56.832;60.658;2023-11-21T05:42:43;7.72;;;2.60;;
42726;SDS011;28372;56.832;60.658;2023-11-21T05:45:11;6.88;;;3.28;;
42726;SDS011;28372;56.832;60.658;2023-11-21T05:47:40;4.28;;;2.45;;
42726;SDS011;28372;56.832;60.658;2023-11-21T05:50:10;9.68;;;2.92;;
42726;SDS011;28372;56.832;60.658;2023-11-21T05:52:46;7.60;;;3.50;;
42726;SDS011;28372;56.832;60.658;2023-11-21T05:55:14;6.57;;;2.88;;
42726;SDS011;28372;56.832;60.658;2023-11-21T05:57:44;6.38;;;2.88;;
42726;SDS011;28372;56.832;60.658;2023-11-21T06:00:12;8.07;;;3.72;;
42726;SDS011;28372;56.832;60.658;2023-11-21T06:02:49;8.60;;;3.42;;
42726;SDS011;28372;56.832;60.658;2023-11-21T06:05:21;6.03;;;2.80;;
42726;SDS011;28372;56.832;60.658;2023-11-21T06:08:03;9.30;;;3.40;;
42726;SDS011;28372;56.832;60.658;2023-11-21T06:10:31;6.30;;;2.90;;
42726;SDS011;28372;56.832;60.658;2023-11-21T06:12:58;7.93;;;3.17;;
42726;SDS011;28372;56.832;60.658;2023-11-21T06:15:30;9.18;;;3.80;;
42726;SDS011;28372;56.832;60.658;2023-11-21T06:17:58;6.07;;;2.38;;
42726;SDS011;28372;56.832;60.658;2023-11-21T06:20:27;5.80;;;3.10;;
42726;SDS011;28372;56.832;60.658;2023-11-21T06:22:55;6.50;;;2.83;;
42726;SDS011;28372;56.832;60.658;2023-11-21T06:25:23;11.32;;;4.55;;
42726;SDS011;28372;56.832;60.658;2023-11-21T06:27:50;7.85;;;3.88;;
42726;SDS011;28372;56.832;60.658;2023-11-21T06:30:19;5.90;;;2.92;;
42726;SDS011;28372;56.832;60.658;2023-11-21T06:32:48;5.25;;;2.47;;
42726;SDS011;28372;56.832;60.658;2023-11-21T06:35:18;7.47;;;3.22;;
42726;SDS011;28372;56.832;60.658;2023-11-21T06:37:46;9.38;;;3.80;;
42726;SDS011;28372;56.832;60.658;2023-11-21T06:40:17;7.68;;;2.92;;
42726;SDS011;28372;56.832;60.658;2023-11-21T06:42:47;7.68;;;3.60;;
42726;SDS011;28372;56.832;60.658;2023-11-21T06:45:16;7.13;;;3.13;;
42726;SDS011;28372;56.832;60.658;2023-11-21T06:47:44;8.77;;;3.83;;
42726;SDS011;28372;56.832;60.658;2023-11-21T06:50:12;9.90;;;4.90;;
42726;SDS011;28372;56.832;60.658;2023-11-21T06:52:41;9.32;;;4.70;;
42726;SDS011;28372;56.832;60.658;2023-11-21T06:55:10;8.75;;;3.55;;
42726;SDS011;28372;56.832;60.658;2023-11-21T06:57:38;8.98;;;3.55;;
42726;SDS011;28372;56.832;60.658;2023-11-21T07:00:06;8.60;;;3.00;;
42726;SDS011;28372;56.832;60.658;2023-11-21T07:02:37;7.20;;;2.63;;
42726;SDS011;28372;56.832;60.658;2023-11-21T07:05:06;8.52;;;3.65;;
42726;SDS011;28372;56.832;60.658;2023-11-21T07:07:34;6.35;;;2.65;;
42726;SDS011;28372;56.832;60.658;2023-11-21T07:10:03;11.13;;;2.35;;
42726;SDS011;28372;56.832;60.658;2023-11-21T07:12:33;12.43;;;3.25;;
42726;SDS011;28372;56.832;60.658;2023-11-21T07:15:01;7.93;;;3.28;;
42726;SDS011;28372;56.832;60.658;2023-11-21T07:20:07;6.00;;;3.13;;
42726;SDS011;28372;56.832;60.658;2023-11-21T07:22:35;6.78;;;2.90;;
42726;SDS011;28372;56.832;60.658;2023-11-21T07:25:03;7.00;;;3.65;;
42726;SDS011;28372;56.832;60.658;2023-11-21T07:27:31;7.50;;;3.30;;
42726;SDS011;28372;56.832;60.658;2023-11-21T07:30:01;6.72;;;3.30;;
42726;SDS011;28372;56.832;60.658;2023-11-21T07:32:31;7.30;;;3.25;;
42726;SDS011;28372;56.832;60.658;2023-11-21T07:34:59;4.32;;;2.40;;
42726;SDS011;28372;56.832;60.658;2023-11-21T07:37:30;11.02;;;3.50;;
42726;SDS011;28372;56.832;60.658;2023-11-21T07:39:58;7.13;;;2.90;;
42726;SDS011;28372;56.832;60.658;2023-11-21T07:42:26;8.43;;;3.63;;
42726;SDS011;28372;56.832;60.658;2023-11-21T07:44:54;4.75;;;2.67;;
42726;SDS011;28372;56.832;60.658;2023-11-21T07:47:22;8.25;;;3.30;;
42726;SDS011;28372;56.832;60.658;2023-11-21T07:49:49;5.35;;;2.90;;
42726;SDS011;28372;56.832;60.658;2023-11-21T07:52:17;7.18;;;3.03;;
42726;SDS011;28372;56.832;60.658;2023-11-21T07:54:45;6.72;;;2.85;;
42726;SDS011;28372;56.832;60.658;2023-11-21T07:57:13;11.52;;;2.58;;
42726;SDS011;28372;56.832;60.658;2023-11-21T07:59:40;8.00;;;3.47;;
42726;SDS011;28372;56.832;60.658;2023-11-21T08:02:08;8.20;;;3.40;;
42726;SDS011;28372;56.832;60.658;2023-11-21T08:04:36;6.07;;;2.80;;
42726;SDS011;28372;56.832;60.658;2023-11-21T08:07:03;5.15;;;2.88;;
42726;SDS011;28372;56.832;60.658;2023-11-21T08:09:31;6.18;;;2.45;;
42726;SDS011;28372;56.832;60.658;2023-11-21T08:12:00;6.55;;;2.80;;
42726;SDS011;28372;56.832;60.658;2023-11-21T08:14:29;7.50;;;3.42;;
42726;SDS011;28372;56.832;60.658;2023-11-21T08:16:57;8.00;;;3.42;;
42726;SDS011;28372;56.832;60.658;2023-11-21T08:19:25;7.65;;;3.40;;
42726;SDS011;28372;56.832;60.658;2023-11-21T08:21:53;6.95;;;3.20;;
42726;SDS011;28372;56.832;60.658;2023-11-21T08:24:21;5.35;;;2.55;;
42726;SDS011;28372;56.832;60.658;2023-11-21T08:26:49;5.35;;;2.60;;
42726;SDS011;28372;56.832;60.658;2023-11-21T08:29:18;6.63;;;2.85;;
42726;SDS011;28372;56.832;60.658;2023-11-21T08:31:45;7.18;;;3.10;;
42726;SDS011;28372;56.832;60.658;2023-11-21T08:34:14;13.98;;;3.72;;
42726;SDS011;28372;56.832;60.658;2023-11-21T08:36:43;9.65;;;3.15;;
42726;SDS011;28372;56.832;60.658;2023-11-21T08:39:10;8.75;;;2.97;;
42726;SDS011;28372;56.832;60.658;2023-11-21T08:41:40;8.60;;;3.40;;
42726;SDS011;28372;56.832;60.658;2023-11-21T08:44:08;7.65;;;3.53;;
42726;SDS011;28372;56.832;60.658;2023-11-21T08:46:36;21.05;;;3.80;;
42726;SDS011;28372;56.832;60.658;2023-11-21T08:49:05;10.10;;;2.85;;
42726;SDS011;28372;56.832;60.658;2023-11-21T08:51:33;9.68;;;3.80;;
42726;SDS011;28372;56.832;60.658;2023-11-21T08:54:01;11.55;;;3.95;;
42726;SDS011;28372;56.832;60.658;2023-11-21T08:56:31;7.75;;;3.30;;
42726;SDS011;28372;56.832;60.658;2023-11-21T08:58:59;12.05;;;2.60;;
42726;SDS011;28372;56.832;60.658;2023-11-21T09:01:31;9.00;;;3.58;;
42726;SDS011;28372;56.832;60.658;2023-11-21T09:04:00;11.00;;;3.60;;
42726;SDS011;28372;56.832;60.658;2023-11-21T09:06:27;7.03;;;2.78;;
42726;SDS011;28372;56.832;60.658;2023-11-21T09:08:55;5.10;;;2.55;;
42726;SDS011;28372;56.832;60.658;2023-11-21T09:11:23;7.50;;;2.70;;
42726;SDS011;28372;56.832;60.658;2023-11-21T09:13:52;5.30;;;2.28;;
42726;SDS011;28372;56.832;60.658;2023-11-21T09:16:20;7.47;;;2.30;;
42726;SDS011;28372;56.832;60.658;2023-11-21T09:18:47;7.10;;;2.55;;
42726;SDS011;28372;56.832;60.658;2023-11-21T09:21:15;6.57;;;3.00;;
42726;SDS011;28372;56.832;60.658;2023-11-21T09:23:46;4.93;;;1.88;;
42726;SDS011;28372;56.832;60.658;2023-11-21T09:26:15;2.17;;;1.30;;
42726;SDS011;28372;56.832;60.658;2023-11-21T09:28:43;7.97;;;2.63;;
42726;SDS011;28372;56.832;60.658;2023-11-21T09:31:14;7.07;;;1.67;;
42726;SDS011;28372;56.832;60.658;2023-11-21T09:33:43;4.88;;;1.90;;
42726;SDS011;28372;56.832;60.658;2023-11-21T09:36:11;7.32;;;2.38;;
42726;SDS011;28372;56.832;60.658;2023-11-21T09:38:41;0.68;;;0.68;;
42726;SDS011;28372;56.832;60.658;2023-11-21T09:41:11;2.75;;;1.48;;
42726;SDS011;28372;56.832;60.658;2023-11-21T09:43:48;2.05;;;0.90;;
42726;SDS011;28372;56.832;60.658;2023-11-21T09:46:22;3.58;;;1.10;;
42726;SDS011;28372;56.832;60.658;2023-11-21T09:48:52;2.08;;;0.73;;
42726;SDS011;28372;56.832;60.658;2023-11-21T09:51:23;1.63;;;1.20;;
42726;SDS011;28372;56.832;60.658;2023-11-21T09:56:26;5.57;;;1.35;;
42726;SDS011;28372;56.832;60.658;2023-11-21T09:58:54;1.65;;;0.93;;
42726;SDS011;28372;56.832;60.658;2023-11-21T10:01:24;1.85;;;0.93;;
42726;SDS011;28372;56.832;60.658;2023-11-21T10:03:54;6.05;;;2.28;;
42726;SDS011;28372;56.832;60.658;2023-11-21T10:06:24;2.25;;;1.30;;
42726;SDS011;28372;56.832;60.658;2023-11-21T10:08:53;3.95;;;1.50;;
42726;SDS011;28372;56.832;60.658;2023-11-21T10:11:24;7.20;;;1.65;;
42726;SDS011;28372;56.832;60.658;2023-11-21T10:13:53;2.60;;;1.23;;
42726;SDS011;28372;56.832;60.658;2023-11-21T10:16:25;2.58;;;1.60;;
42726;SDS011;28372;56.832;60.658;2023-11-21T10:18:54;2.33;;;1.27;;
42726;SDS011;28372;56.832;60.658;2023-11-21T10:21:39;1.73;;;0.87;;
42726;SDS011;28372;56.832;60.658;2023-11-21T10:24:07;3.70;;;1.08;;
42726;SDS011;28372;56.832;60.658;2023-11-21T10:26:35;2.15;;;0.90;;
42726;SDS011;28372;56.832;60.658;2023-11-21T10:29:19;3.08;;;1.00;;
42726;SDS011;28372;56.832;60.658;2023-11-21T10:31:52;1.27;;;0.68;;
42726;SDS011;28372;56.832;60.658;2023-11-21T10:34:22;2.20;;;1.38;;
42726;SDS011;28372;56.832;60.658;2023-11-21T10:36:50;2.72;;;1.20;;
42726;SDS011;28372;56.832;60.658;2023-11-21T10:39:18;2.78;;;1.23;;
42726;SDS011;28372;56.832;60.658;2023-11-21T10:41:50;3.40;;;1.20;;
42726;SDS011;28372;56.832;60.658;2023-11-21T10:44:18;2.17;;;0.82;;
42726;SDS011;28372;56.832;60.658;2023-11-21T10:46:53;3.00;;;1.57;;
42726;SDS011;28372;56.832;60.658;2023-11-21T10:49:26;4.28;;;1.20;;
42726;SDS011;28372;56.832;60.658;2023-11-21T10:51:55;1.60;;;0.80;;
42726;SDS011;28372;56.832;60.658;2023-11-21T10:54:23;1.25;;;0.85;;
42726;SDS011;28372;56.832;60.658;2023-11-21T10:56:58;1.30;;;0.80;;
42726;SDS011;28372;56.832;60.658;2023-11-21T10:59:29;1.40;;;0.90;;
42726;SDS011;28372;56.832;60.658;2023-11-21T11:01:59;2.08;;;1.00;;
42726;SDS011;28372;56.832;60.658;2023-11-21T11:04:31;2.83;;;1.35;;
42726;SDS011;28372;56.832;60.658;2023-11-21T11:07:02;2.45;;;0.98;;
42726;SDS011;28372;56.832;60.658;2023-11-21T11:09:32;3.03;;;1.00;;
42726;SDS011;28372;56.832;60.658;2023-11-21T11:12:03;0.70;;;0.65;;
42726;SDS011;28372;56.832;60.658;2023-11-21T11:14:32;2.97;;;1.63;;
42726;SDS011;28372;56.832;60.658;2023-11-21T11:17:00;1.90;;;0.93;;
42726;SDS011;28372;56.832;60.658;2023-11-21T11:19:29;1.08;;;0.70;;
42726;SDS011;28372;56.832;60.658;2023-11-21T11:30:30;4.35;;;1.35;;
42726;SDS011;28372;56.832;60.658;2023-11-21T11:35:49;1.83;;;0.52;;
42726;SDS011;28372;56.832;60.658;2023-11-21T11:38:32;2.03;;;1.10;;
42726;SDS011;28372;56.832;60.658;2023-11-21T11:41:02;2.90;;;1.27;;
42726;SDS011;28372;56.832;60.658;2023-11-21T11:43:31;1.85;;;0.95;;
42726;SDS011;28372;56.832;60.658;2023-11-21T11:46:02;2.50;;;0.90;;
42726;SDS011;28372;56.832;60.658;2023-11-21T11:48:34;2.15;;;1.10;;
42726;SDS011;28372;56.832;60.658;2023-11-21T11:51:15;6.22;;;1.48;;
42726;SDS011;28372;56.832;60.658;2023-11-21T11:53:47;1.00;;;0.52;;
42726;SDS011;28372;56.832;60.658;2023-11-21T11:56:28;3.83;;;1.83;;
42726;SDS011;28372;56.832;60.658;2023-11-21T12:01:31;2.05;;;0.82;;
42726;SDS011;28372;56.832;60.658;2023-11-21T12:07:01;1.65;;;0.80;;
42726;SDS011;28372;56.832;60.658;2023-11-21T12:09:33;2.67;;;1.15;;
42726;SDS011;28372;56.832;60.658;2023-11-21T12:12:02;3.30;;;1.67;;
42726;SDS011;28372;56.832;60.658;2023-11-21T12:14:30;3.70;;;1.73;;
42726;SDS011;28372;56.832;60.658;2023-11-21T12:16:58;1.63;;;0.88;;
42726;SDS011;28372;56.832;60.658;2023-11-21T12:19:27;0.90;;;0.60;;
42726;SDS011;28372;56.832;60.658;2023-11-21T12:21:54;3.45;;;1.10;;
42726;SDS011;28372;56.832;60.658;2023-11-21T12:24:22;2.55;;;1.27;;
42726;SDS011;28372;56.832;60.658;2023-11-21T12:26:51;1.38;;;0.90;;
42726;SDS011;28372;56.832;60.658;2023-11-21T12:29:19;3.50;;;1.48;;
42726;SDS011;28372;56.832;60.658;2023-11-21T12:31:48;4.50;;;1.67;;
42726;SDS011;28372;56.832;60.658;2023-11-21T12:34:17;2.63;;;1.20;;
42726;SDS011;28372;56.832;60.658;2023-11-21T12:36:45;1.75;;;1.20;;
42726;SDS011;28372;56.832;60.658;2023-11-21T12:39:13;2.33;;;1.33;;
42726;SDS011;28372;56.832;60.658;2023-11-21T12:41:41;1.95;;;1.00;;
42726;SDS011;28372;56.832;60.658;2023-11-21T12:44:11;2.30;;;0.90;;
42726;SDS011;28372;56.832;60.658;2023-11-21T12:46:42;2.67;;;1.20;;
42726;SDS011;28372;56.832;60.658;2023-11-21T12:49:12;1.77;;;1.02;;
42726;SDS011;28372;56.832;60.658;2023-11-21T12:51:47;3.45;;;1.50;;
42726;SDS011;28372;56.832;60.658;2023-11-21T12:54:15;2.15;;;0.98;;
42726;SDS011;28372;56.832;60.658;2023-11-21T12:56:45;3.30;;;1.40;;
42726;SDS011;28372;56.832;60.658;2023-11-21T12:59:14;1.58;;;0.80;;
42726;SDS011;28372;56.832;60.658;2023-11-21T13:01:43;3.80;;;1.33;;
42726;SDS011;28372;56.832;60.658;2023-11-21T13:04:12;2.58;;;1.40;;
42726;SDS011;28372;56.832;60.658;2023-11-21T13:06:41;2.42;;;1.35;;
42726;SDS011;28372;56.832;60.658;2023-11-21T13:09:09;4.38;;;1.80;;
42726;SDS011;28372;56.832;60.658;2023-11-21T13:11:37;1.85;;;0.90;;
42726;SDS011;28372;56.832;60.658;2023-11-21T13:14:08;2.30;;;0.88;;
42726;SDS011;28372;56.832;60.658;2023-11-21T13:16:39;4.00;;;2.15;;
42726;SDS011;28372;56.832;60.658;2023-11-21T13:19:13;4.65;;;1.92;;
42726;SDS011;28372;56.832;60.658;2023-11-21T13:21:41;2.90;;;1.20;;
42726;SDS011;28372;56.832;60.658;2023-11-21T13:24:09;2.72;;;1.30;;
42726;SDS011;28372;56.832;60.658;2023-11-21T13:26:37;2.05;;;1.13;;
42726;SDS011;28372;56.832;60.658;2023-11-21T13:29:05;1.73;;;0.95;;
42726;SDS011;28372;56.832;60.658;2023-11-21T13:31:33;1.52;;;0.85;;
42726;SDS011;28372;56.832;60.658;2023-11-21T13:34:04;2.42;;;1.02;;
42726;SDS011;28372;56.832;60.658;2023-11-21T13:36:32;7.53;;;1.33;;
42726;SDS011;28372;56.832;60.658;2023-11-21T13:39:03;3.55;;;1.42;;
42726;SDS011;28372;56.832;60.658;2023-11-21T13:41:43;2.20;;;1.15;;
42726;SDS011;28372;56.832;60.658;2023-11-21T13:44:10;1.88;;;1.15;;
42726;SDS011;28372;56.832;60.658;2023-11-21T13:46:58;3.15;;;1.45;;
42726;SDS011;28372;56.832;60.658;2023-11-21T13:49:29;5.82;;;2.42;;
42726;SDS011;28372;56.832;60.658;2023-11-21T13:54:58;3.67;;;1.20;;
42726;SDS011;28372;56.832;60.658;2023-11-21T13:57:29;1.70;;;1.08;;
42726;SDS011;28372;56.832;60.658;2023-11-21T13:59:56;2.72;;;1.40;;
42726;SDS011;28372;56.832;60.658;2023-11-21T14:02:25;3.50;;;1.20;;
42726;SDS011;28372;56.832;60.658;2023-11-21T14:05:02;2.53;;;1.35;;
42726;SDS011;28372;56.832;60.658;2023-11-21T14:07:36;2.65;;;1.33;;
42726;SDS011;28372;56.832;60.658;2023-11-21T14:10:04;2.80;;;1.30;;
42726;SDS011;28372;56.832;60.658;2023-11-21T14:12:35;1.70;;;0.90;;
42726;SDS011;28372;56.832;60.658;2023-11-21T14:15:06;4.07;;;1.63;;
42726;SDS011;28372;56.832;60.658;2023-11-21T14:17:37;2.35;;;1.13;;
42726;SDS011;28372;56.832;60.658;2023-11-21T14:20:08;1.60;;;0.80;;
42726;SDS011;28372;56.832;60.658;2023-11-21T14:22:44;2.63;;;1.05;;
42726;SDS011;28372;56.832;60.658;2023-11-21T14:25:12;2.80;;;1.27;;
42726;SDS011;28372;56.832;60.658;2023-11-21T14:27:44;2.05;;;1.17;;
42726;SDS011;28372;56.832;60.658;2023-11-21T14:30:12;2.47;;;0.82;;
42726;SDS011;28372;56.832;60.658;2023-11-21T14:32:40;1.60;;;0.60;;
42726;SDS011;28372;56.832;60.658;2023-11-21T14:35:11;3.25;;;1.02;;
42726;SDS011;28372;56.832;60.658;2023-11-21T14:37:39;4.93;;;1.77;;
42726;SDS011;28372;56.832;60.658;2023-11-21T14:40:07;2.78;;;1.40;;
42726;SDS011;28372;56.832;60.658;2023-11-21T14:42:36;3.80;;;1.35;;
42726;SDS011;28372;56.832;60.658;2023-11-21T14:45:06;6.13;;;1.10;;
42726;SDS011;28372;56.832;60.658;2023-11-21T14:47:35;2.00;;;0.98;;
42726;SDS011;28372;56.832;60.658;2023-11-21T14:50:05;3.78;;;1.10;;
42726;SDS011;28372;56.832;60.658;2023-11-21T14:52:53;1.50;;;1.30;;
42726;SDS011;28372;56.832;60.658;2023-11-21T14:55:26;2.78;;;1.23;;
42726;SDS011;28372;56.832;60.658;2023-11-21T14:57:59;4.97;;;1.30;;
42726;SDS011;28372;56.832;60.658;2023-11-21T15:00:31;4.63;;;2.13;;
42726;SDS011;28372;56.832;60.658;2023-11-21T15:03:03;2.45;;;1.50;;
42726;SDS011;28372;56.832;60.658;2023-11-21T15:05:31;3.85;;;1.40;;
42726;SDS011;28372;56.832;60.658;2023-11-21T15:08:02;0.80;;;0.55;;
42726;SDS011;28372;56.832;60.658;2023-11-21T15:10:56;1.83;;;1.13;;